createdAt,value
2018-06-04T00:00:58.817Z,8.47
2018-06-04T00:03:27.046Z,9.77
2018-06-04T00:05:55.327Z,9.47
2018-06-04T00:08:23.555Z,8.67
2018-06-04T00:10:51.776Z,9.70
2018-06-04T00:13:19.993Z,9.03
2018-06-04T00:15:48.224Z,8.57
2018-06-04T00:18:16.449Z,9.30
2018-06-04T00:20:44.669Z,9.87
2018-06-04T00:23:12.886Z,9.77
2018-06-04T00:25:41.105Z,10.13
2018-06-04T00:28:09.406Z,9.80
2018-06-04T00:30:37.642Z,12.07
2018-06-04T00:33:05.865Z,9.63
2018-06-04T00:35:34.085Z,10.97
2018-06-04T00:38:02.301Z,9.20
2018-06-04T00:40:30.541Z,9.37
2018-06-04T00:42:58.749Z,9.67
2018-06-04T00:45:26.969Z,9.30
2018-06-04T00:47:55.193Z,11.33
2018-06-04T00:50:23.397Z,10.43
2018-06-04T00:52:51.620Z,10.13
2018-06-04T00:55:19.837Z,10.60
2018-06-04T00:57:48.062Z,10.33
2018-06-04T01:00:16.276Z,9.40
2018-06-04T01:02:44.497Z,9.50
2018-06-04T01:05:12.704Z,9.73
2018-06-04T01:07:40.933Z,9.70
2018-06-04T01:10:09.156Z,10.50
2018-06-04T01:12:37.376Z,9.90
2018-06-04T01:15:05.340Z,10.10
2018-06-04T01:17:33.557Z,9.73
2018-06-04T01:20:01.781Z,10.80
2018-06-04T01:22:29.999Z,9.90
2018-06-04T01:24:58.213Z,10.67
2018-06-04T01:27:26.565Z,10.10
2018-06-04T01:32:45.362Z,10.47
2018-06-04T01:35:13.330Z,10.63
2018-06-04T01:37:41.537Z,11.63
2018-06-04T01:40:09.816Z,13.53
2018-06-04T01:42:38.016Z,10.53
2018-06-04T01:45:06.233Z,10.10
2018-06-04T01:47:34.450Z,10.50
2018-06-04T01:50:02.657Z,11.07
2018-06-04T01:52:30.870Z,10.23
2018-06-04T01:54:59.065Z,9.90
2018-06-04T01:57:27.278Z,12.13
2018-06-04T01:59:55.970Z,11.00
2018-06-04T02:02:24.889Z,11.97
2018-06-04T02:04:53.108Z,10.97
2018-06-04T02:07:21.330Z,12.27
2018-06-04T02:09:49.556Z,10.17
2018-06-04T02:12:19.146Z,13.90
2018-06-04T02:14:47.356Z,11.10
2018-06-04T02:17:15.608Z,12.70
2018-06-04T02:19:43.833Z,12.43
2018-06-04T02:22:16.801Z,12.37
2018-06-04T02:24:45.024Z,12.67
2018-06-04T02:27:13.249Z,10.97
2018-06-04T02:29:41.462Z,12.10
2018-06-04T02:32:09.689Z,12.00
2018-06-04T02:34:37.917Z,12.07
2018-06-04T02:37:06.142Z,11.37
2018-06-04T02:39:34.362Z,13.77
2018-06-04T02:42:04.609Z,11.77
2018-06-04T02:44:32.829Z,12.43
2018-06-04T02:47:01.064Z,13.47
2018-06-04T02:49:29.325Z,12.53
2018-06-04T02:51:57.561Z,13.10
2018-06-04T02:54:25.830Z,12.57
2018-06-04T02:56:54.204Z,14.03
2018-06-04T02:59:22.438Z,11.47
2018-06-04T03:01:50.680Z,11.37
2018-06-04T03:04:18.917Z,11.83
2018-06-04T03:06:47.151Z,12.00
2018-06-04T03:09:15.390Z,12.50
2018-06-04T03:11:43.670Z,13.17
2018-06-04T03:14:11.895Z,13.33
2018-06-04T03:16:40.126Z,12.40
2018-06-04T03:19:08.354Z,12.17
2018-06-04T03:21:36.585Z,15.17
2018-06-04T03:24:04.817Z,11.90
2018-06-04T03:26:33.045Z,14.80
2018-06-04T03:29:01.289Z,15.23
2018-06-04T03:31:29.513Z,12.30
2018-06-04T03:33:57.772Z,12.47
2018-06-04T03:36:26.005Z,13.80
2018-06-04T03:38:54.389Z,12.40
2018-06-04T03:41:22.629Z,11.63
2018-06-04T03:43:50.877Z,12.80
2018-06-04T03:46:19.198Z,12.40
2018-06-04T03:48:49.881Z,13.33
2018-06-04T03:51:18.117Z,12.37
2018-06-04T03:53:46.349Z,14.10
2018-06-04T03:56:14.581Z,12.67
2018-06-04T03:58:42.808Z,14.43
2018-06-04T04:01:11.041Z,12.77
2018-06-04T04:03:39.313Z,14.07
2018-06-04T04:06:07.562Z,12.67
2018-06-04T04:08:35.802Z,11.83
2018-06-04T04:11:04.127Z,12.70
2018-06-04T04:13:32.477Z,12.53
2018-06-04T04:16:00.743Z,12.63
2018-06-04T04:18:28.711Z,13.83
2018-06-04T04:20:57.042Z,14.27
2018-06-04T04:23:25.273Z,12.80
2018-06-04T04:25:53.509Z,13.50
2018-06-04T04:28:21.720Z,13.10
2018-06-04T04:30:49.949Z,13.63
2018-06-04T04:33:18.173Z,13.30
2018-06-04T04:35:46.377Z,12.67
2018-06-04T04:38:14.584Z,12.43
2018-06-04T04:40:42.794Z,13.60
2018-06-04T04:43:11.056Z,13.67
2018-06-04T04:45:39.293Z,13.17
2018-06-04T04:48:07.530Z,14.20
2018-06-04T04:50:35.838Z,14.00
2018-06-04T04:53:03.932Z,16.70
2018-06-04T04:55:32.190Z,14.07
2018-06-04T04:58:00.373Z,13.80
2018-06-04T05:00:28.606Z,14.73
2018-06-04T05:02:56.837Z,14.50
2018-06-04T05:05:25.340Z,15.33
2018-06-04T05:07:53.745Z,14.20
2018-06-04T05:10:22.166Z,17.43
2018-06-04T05:12:50.394Z,12.77
2018-06-04T05:15:18.624Z,14.30
2018-06-04T05:17:46.857Z,15.67
2018-06-04T05:20:15.077Z,14.77
2018-06-04T05:22:43.300Z,16.13
2018-06-04T05:25:11.566Z,14.77
2018-06-04T05:27:39.793Z,14.17
2018-06-04T05:30:08.014Z,15.00
2018-06-04T05:32:36.242Z,15.03
2018-06-04T05:35:04.473Z,16.70
2018-06-04T05:37:32.689Z,14.53
2018-06-04T05:40:00.918Z,13.30
2018-06-04T05:42:29.145Z,14.00
2018-06-04T05:44:57.464Z,13.97
2018-06-04T05:47:25.689Z,15.40
2018-06-04T05:49:53.999Z,14.17
2018-06-04T05:52:22.327Z,14.57
2018-06-04T05:54:50.558Z,13.90
2018-06-04T05:57:18.781Z,15.53
2018-06-04T05:59:46.991Z,18.33
2018-06-04T06:02:15.214Z,13.53
2018-06-04T06:04:43.421Z,13.27
2018-06-04T06:07:11.633Z,13.43
2018-06-04T06:09:39.850Z,11.97
2018-06-04T06:12:08.050Z,12.47
2018-06-04T06:14:36.266Z,11.47
2018-06-04T06:17:04.470Z,10.87
2018-06-04T06:19:32.677Z,12.43
2018-06-04T06:22:00.878Z,9.67
2018-06-04T06:24:29.094Z,9.20
2018-06-04T06:26:57.304Z,10.53
2018-06-04T06:29:25.527Z,8.63
2018-06-04T06:31:53.740Z,8.03
2018-06-04T06:34:21.935Z,8.93
2018-06-04T06:36:50.162Z,8.50
2018-06-04T06:39:18.359Z,8.48
2018-06-04T06:41:46.571Z,7.72
2018-06-04T06:44:14.778Z,9.38
2018-06-04T06:46:42.978Z,9.88
2018-06-04T06:49:11.178Z,8.80
2018-06-04T06:51:39.381Z,8.23
2018-06-04T06:54:07.590Z,8.65
2018-06-04T06:56:35.805Z,9.53
2018-06-04T06:59:04.048Z,9.58
2018-06-04T07:01:32.265Z,9.85
2018-06-04T07:04:00.481Z,8.48
2018-06-04T07:06:28.725Z,8.65
2018-06-04T07:08:56.954Z,8.25
2018-06-04T07:11:25.212Z,9.10
2018-06-04T07:13:53.469Z,8.58
2018-06-04T07:16:21.701Z,8.88
2018-06-04T07:18:49.949Z,8.95
2018-06-04T07:21:18.173Z,9.25
2018-06-04T07:23:46.468Z,10.05
2018-06-04T07:26:14.697Z,11.55
2018-06-04T07:28:42.928Z,14.07
2018-06-04T07:31:11.220Z,9.08
2018-06-04T07:33:39.441Z,9.38
2018-06-04T07:36:11.034Z,8.40
2018-06-04T07:38:39.997Z,8.80
2018-06-04T07:41:08.341Z,8.93
2018-06-04T07:43:36.472Z,8.80
2018-06-04T07:46:04.698Z,9.20
2018-06-04T07:48:32.937Z,10.88
2018-06-04T07:51:01.163Z,9.33
2018-06-04T07:53:29.385Z,8.68
2018-06-04T07:55:57.605Z,8.88
2018-06-04T07:58:25.853Z,9.28
2018-06-04T08:00:54.120Z,9.18
2018-06-04T08:03:22.345Z,9.20
2018-06-04T08:05:50.572Z,10.88
2018-06-04T08:08:18.813Z,9.18
2018-06-04T08:10:49.109Z,8.33
2018-06-04T08:13:17.328Z,9.20
2018-06-04T08:15:45.558Z,8.03
2018-06-04T08:18:13.789Z,8.95
2018-06-04T08:20:42.037Z,8.55
2018-06-04T08:23:10.268Z,9.13
2018-06-04T08:25:38.493Z,8.85
2018-06-04T08:28:06.729Z,8.30
2018-06-04T08:30:34.961Z,8.13
2018-06-04T08:33:03.185Z,8.98
2018-06-04T08:35:31.418Z,11.28
2018-06-04T08:37:59.656Z,9.03
2018-06-04T08:40:27.880Z,9.38
2018-06-04T08:42:56.726Z,8.38
2018-06-04T08:45:24.967Z,8.80
2018-06-04T08:47:53.196Z,10.13
2018-06-04T08:50:21.442Z,8.83
2018-06-04T08:52:49.670Z,10.38
2018-06-04T08:55:17.917Z,10.08
2018-06-04T08:57:46.147Z,8.38
2018-06-04T09:00:14.116Z,9.03
2018-06-04T09:02:42.350Z,7.80
2018-06-04T09:05:10.578Z,7.83
2018-06-04T09:07:38.829Z,9.13
2018-06-04T09:10:07.084Z,8.05
2018-06-04T09:12:35.313Z,8.90
2018-06-04T09:15:03.582Z,8.90
2018-06-04T09:17:32.163Z,8.65
2018-06-04T09:20:00.411Z,7.70
2018-06-04T09:22:28.664Z,8.13
2018-06-04T09:24:56.884Z,7.70
2018-06-04T09:27:25.174Z,8.10
2018-06-04T09:29:53.413Z,8.00
2018-06-04T09:32:21.704Z,7.40
2018-06-04T09:34:49.903Z,8.53
2018-06-04T09:37:18.129Z,7.45
2018-06-04T09:39:46.481Z,7.08
2018-06-04T09:42:14.693Z,6.47
2018-06-04T09:44:42.904Z,6.87
2018-06-04T09:47:11.121Z,6.42
2018-06-04T09:49:39.344Z,6.37
2018-06-04T09:52:07.560Z,6.85
2018-06-04T09:54:35.785Z,7.20
2018-06-04T09:59:55.877Z,6.58
2018-06-04T10:02:24.093Z,6.12
2018-06-04T10:04:52.335Z,5.37
2018-06-04T10:07:20.546Z,6.05
2018-06-04T10:09:48.774Z,6.50
2018-06-04T10:12:16.989Z,7.62
2018-06-04T10:14:45.205Z,7.22
2018-06-04T10:17:13.449Z,6.70
2018-06-04T10:19:41.685Z,7.78
2018-06-04T10:22:09.902Z,6.20
2018-06-04T10:24:38.209Z,5.95
2018-06-04T10:27:06.425Z,6.08
2018-06-04T10:29:34.650Z,6.50
2018-06-04T10:32:02.873Z,7.03
2018-06-04T10:34:31.097Z,6.42
2018-06-04T10:36:59.316Z,5.75
2018-06-04T10:39:27.569Z,6.05
2018-06-04T10:41:55.820Z,6.40
2018-06-04T10:44:24.032Z,6.28
2018-06-04T10:46:52.258Z,5.47
2018-06-04T10:49:20.485Z,5.40
2018-06-04T10:51:48.721Z,4.83
2018-06-04T10:54:16.952Z,5.12
2018-06-04T10:56:45.180Z,6.67
2018-06-04T10:59:13.428Z,7.45
2018-06-04T11:01:41.652Z,7.17
2018-06-04T11:04:09.877Z,6.37
2018-06-04T11:06:38.114Z,6.67
2018-06-04T11:09:08.475Z,6.40
2018-06-04T11:11:36.710Z,6.22
2018-06-04T11:14:04.936Z,6.10
2018-06-04T11:16:33.178Z,5.90
2018-06-04T11:19:01.401Z,6.25
2018-06-04T11:21:29.657Z,5.72
2018-06-04T11:23:57.885Z,5.92
2018-06-04T11:26:26.158Z,5.58
2018-06-04T11:28:54.429Z,5.78
2018-06-04T11:31:22.669Z,6.12
2018-06-04T11:33:50.898Z,6.72
2018-06-04T11:36:19.134Z,6.85
2018-06-04T11:38:47.112Z,5.60
2018-06-04T11:41:15.365Z,5.40
2018-06-04T11:43:43.609Z,6.08
2018-06-04T11:46:11.846Z,5.60
2018-06-04T11:48:40.073Z,5.37
2018-06-04T11:51:08.330Z,5.33
2018-06-04T11:53:36.563Z,5.62
2018-06-04T11:56:04.948Z,5.50
2018-06-04T11:58:33.169Z,5.40
2018-06-04T12:01:01.406Z,4.92
2018-06-04T12:03:29.626Z,5.20
2018-06-04T12:05:57.904Z,5.58
2018-06-04T12:08:26.124Z,5.33
2018-06-04T12:10:54.356Z,5.97
2018-06-04T12:13:22.577Z,5.25
2018-06-04T12:15:50.797Z,7.30
2018-06-04T12:18:19.013Z,5.25
2018-06-04T12:20:47.227Z,5.45
2018-06-04T12:23:15.444Z,5.65
2018-06-04T12:25:43.666Z,6.00
2018-06-04T12:28:11.930Z,5.60
2018-06-04T12:30:40.120Z,5.97
2018-06-04T12:33:08.366Z,5.92
2018-06-04T12:35:36.596Z,5.42
2018-06-04T12:38:04.817Z,7.70
2018-06-04T12:40:33.038Z,5.50
2018-06-04T12:43:01.268Z,6.35
2018-06-04T12:45:29.488Z,5.22
2018-06-04T12:47:57.713Z,5.87
2018-06-04T12:50:25.928Z,5.53
2018-06-04T12:52:54.256Z,5.97
2018-06-04T12:55:22.488Z,7.45
2018-06-04T12:57:50.704Z,5.70
2018-06-04T13:00:18.929Z,5.47
2018-06-04T13:02:47.154Z,5.03
2018-06-04T13:05:15.372Z,5.85
2018-06-04T13:07:43.597Z,5.55
2018-06-04T13:10:11.822Z,5.65
2018-06-04T13:12:40.038Z,6.15
2018-06-04T13:15:08.261Z,5.22
2018-06-04T13:17:36.477Z,5.37
2018-06-04T13:20:04.697Z,6.12
2018-06-04T13:22:32.912Z,4.85
2018-06-04T13:25:01.134Z,5.85
2018-06-04T13:27:29.356Z,5.20
2018-06-04T13:29:57.581Z,6.15
2018-06-04T13:32:25.798Z,5.55
2018-06-04T13:34:54.048Z,5.15
2018-06-04T13:37:22.278Z,5.12
2018-06-04T13:39:50.520Z,6.17
2018-06-04T13:42:18.741Z,7.60
2018-06-04T13:44:46.979Z,6.05
2018-06-04T13:47:15.201Z,5.40
2018-06-04T13:49:43.421Z,5.55
2018-06-04T13:52:11.645Z,5.17
2018-06-04T13:54:39.894Z,5.08
2018-06-04T13:57:08.125Z,5.15
2018-06-04T13:59:37.452Z,5.20
2018-06-04T14:02:05.956Z,5.67
2018-06-04T14:04:34.185Z,5.12
2018-06-04T14:07:02.414Z,5.45
2018-06-04T14:09:30.621Z,6.95
2018-06-04T14:11:58.836Z,5.00
2018-06-04T14:14:27.061Z,4.53
2018-06-04T14:16:55.296Z,4.97
2018-06-04T14:19:23.512Z,4.40
2018-06-04T14:21:51.732Z,5.95
2018-06-04T14:24:19.953Z,5.05
2018-06-04T14:26:48.274Z,7.65
2018-06-04T14:29:16.500Z,5.15
2018-06-04T14:31:44.733Z,7.67
2018-06-04T14:34:12.953Z,4.78
2018-06-04T14:36:52.105Z,5.00
2018-06-04T14:39:21.819Z,4.58
2018-06-04T14:41:50.105Z,5.15
2018-06-04T14:44:18.338Z,4.55
2018-06-04T14:46:47.351Z,5.00
2018-06-04T14:49:16.255Z,4.35
2018-06-04T14:51:44.532Z,5.37
2018-06-04T14:54:13.571Z,4.58
2018-06-04T14:56:41.810Z,4.80
2018-06-04T14:59:10.038Z,4.72
2018-06-04T15:01:39.480Z,8.60
2018-06-04T15:04:07.445Z,6.72
2018-06-04T15:06:35.813Z,6.17
2018-06-04T15:09:06.116Z,6.37
2018-06-04T15:11:36.209Z,4.60
2018-06-04T15:14:06.371Z,4.83
2018-06-04T15:16:35.608Z,5.55
2018-06-04T15:19:04.666Z,5.15
2018-06-04T15:21:33.142Z,4.35
2018-06-04T15:24:01.449Z,5.90
2018-06-04T15:26:31.172Z,5.45
2018-06-04T15:28:59.827Z,4.70
2018-06-04T15:31:28.133Z,4.75
2018-06-04T15:33:57.833Z,4.25
2018-06-04T15:36:26.329Z,4.85
2018-06-04T15:38:54.537Z,4.70
2018-06-04T15:41:22.740Z,4.87
2018-06-04T15:43:51.522Z,5.30
2018-06-04T15:46:22.741Z,7.05
2018-06-04T15:48:51.333Z,5.25
2018-06-04T15:51:19.575Z,6.60
2018-06-04T15:53:47.792Z,6.78
2018-06-04T15:56:16.028Z,5.05
2018-06-04T15:58:44.000Z,5.35
2018-06-04T16:01:12.229Z,5.75
2018-06-04T16:03:40.460Z,5.42
2018-06-04T16:07:46.752Z,5.92
2018-06-04T16:10:15.994Z,6.75
2018-06-04T16:12:44.910Z,5.87
2018-06-04T16:15:13.189Z,5.70
2018-06-04T16:17:43.209Z,5.78
2018-06-04T16:20:11.445Z,6.12
2018-06-04T16:22:40.292Z,5.67
2018-06-04T16:25:09.612Z,5.55
2018-06-04T16:27:37.820Z,5.40
2018-06-04T16:30:06.889Z,5.22
2018-06-04T16:32:36.277Z,5.50
2018-06-04T16:35:04.542Z,5.15
2018-06-04T16:37:33.781Z,5.97
2018-06-04T16:40:02.326Z,5.37
2018-06-04T16:42:30.545Z,5.67
2018-06-04T16:45:00.058Z,6.00
2018-06-04T16:47:29.246Z,4.92
2018-06-04T16:49:57.561Z,5.25
2018-06-04T16:52:25.532Z,5.83
2018-06-04T16:54:53.750Z,5.35
2018-06-04T16:57:21.963Z,5.35
2018-06-04T16:59:49.964Z,5.97
2018-06-04T17:02:18.185Z,5.72
2018-06-04T17:04:46.408Z,7.83
2018-06-04T17:07:14.625Z,5.67
2018-06-04T17:09:42.842Z,7.92
2018-06-04T17:12:11.073Z,6.25
2018-06-04T17:14:39.332Z,5.92
2018-06-04T17:17:07.565Z,5.62
2018-06-04T17:19:35.797Z,6.78
2018-06-04T17:22:04.012Z,5.67
2018-06-04T17:24:31.995Z,6.47
2018-06-04T17:27:00.356Z,8.65
2018-06-04T17:29:28.641Z,6.50
2018-06-04T17:31:57.754Z,6.70
2018-06-04T17:34:25.960Z,6.45
2018-06-04T17:39:45.145Z,7.53
2018-06-04T17:42:13.459Z,6.10
2018-06-04T17:44:41.693Z,6.87
2018-06-04T17:47:10.421Z,8.03
2018-06-04T17:49:38.648Z,7.20
2018-06-04T17:52:06.857Z,8.28
2018-06-04T17:54:35.057Z,8.38
2018-06-04T17:57:03.285Z,7.33
2018-06-04T17:59:32.297Z,7.28
2018-06-04T18:02:01.389Z,7.12
2018-06-04T18:04:30.259Z,7.00
2018-06-04T18:06:58.620Z,11.20
2018-06-04T18:09:26.836Z,6.30
2018-06-04T18:11:55.072Z,7.13
2018-06-04T18:14:23.377Z,7.67
2018-06-04T18:16:51.634Z,7.23
2018-06-04T18:19:19.853Z,7.30
2018-06-04T18:21:48.058Z,7.30
2018-06-04T18:24:16.299Z,8.40
2018-06-04T18:26:44.509Z,7.03
2018-06-04T18:29:12.717Z,7.20
2018-06-04T18:31:41.219Z,8.03
2018-06-04T18:34:09.305Z,8.37
2018-06-04T18:36:37.594Z,7.13
2018-06-04T18:41:58.028Z,7.00
2018-06-04T18:44:26.260Z,7.20
2018-06-04T18:46:54.512Z,7.20
2018-06-04T18:49:22.709Z,6.67
2018-06-04T18:51:50.912Z,7.10
2018-06-04T18:54:18.899Z,8.70
2018-06-04T18:56:47.097Z,8.00
2018-06-04T18:59:15.328Z,6.53
2018-06-04T19:01:43.822Z,7.70
2018-06-04T19:04:12.323Z,11.97
2018-06-04T19:06:40.552Z,7.23
2018-06-04T19:09:09.478Z,7.23
2018-06-04T19:11:38.137Z,7.47
2018-06-04T19:14:06.408Z,7.27
2018-06-04T19:16:34.645Z,7.57
2018-06-04T19:19:03.634Z,8.47
2018-06-04T19:21:32.460Z,7.87
2018-06-04T19:24:00.693Z,7.90
2018-06-04T19:26:30.054Z,7.90
2018-06-04T19:28:58.306Z,7.60
2018-06-04T19:31:26.540Z,7.40
2018-06-04T19:33:54.803Z,8.30
2018-06-04T19:36:23.121Z,7.03
2018-06-04T19:38:51.345Z,8.37
2018-06-04T19:41:19.677Z,7.57
2018-06-04T19:43:47.904Z,10.57
2018-06-04T19:46:16.124Z,7.90
2018-06-04T19:48:44.357Z,8.87
2018-06-04T19:51:12.580Z,8.17
2018-06-04T19:53:40.822Z,8.03
2018-06-04T19:56:08.797Z,7.80
2018-06-04T19:58:36.992Z,8.13
2018-06-04T20:01:07.104Z,8.40
2018-06-04T20:03:35.389Z,9.60
2018-06-04T20:06:03.625Z,9.77
2018-06-04T20:08:31.925Z,10.23
2018-06-04T20:11:00.135Z,9.90
2018-06-04T20:13:28.380Z,8.87
2018-06-04T20:15:56.396Z,8.73
2018-06-04T20:18:25.073Z,8.53
2018-06-04T20:23:44.017Z,8.87
2018-06-04T20:26:12.282Z,9.00
2018-06-04T20:28:40.560Z,9.40
2018-06-04T20:31:08.825Z,9.33
2018-06-04T20:33:37.065Z,8.60
2018-06-04T20:36:05.306Z,10.20
2018-06-04T20:38:33.549Z,9.43
2018-06-04T20:41:01.793Z,10.13
2018-06-04T20:43:30.025Z,8.33
2018-06-04T20:45:58.258Z,9.10
2018-06-04T20:48:26.502Z,11.10
2018-06-04T20:50:54.829Z,9.73
2018-06-04T20:53:23.065Z,10.10
2018-06-04T20:55:51.289Z,9.57
2018-06-04T20:58:19.518Z,9.53
2018-06-04T21:00:47.741Z,9.53
2018-06-04T21:03:15.982Z,10.93
2018-06-04T21:05:44.221Z,9.70
2018-06-04T21:08:12.453Z,10.00
2018-06-04T21:10:40.692Z,11.27
2018-06-04T21:13:08.932Z,10.30
2018-06-04T21:15:37.173Z,11.97
2018-06-04T21:18:05.421Z,11.30
2018-06-04T21:20:33.956Z,10.27
2018-06-04T21:23:04.101Z,10.77
2018-06-04T21:25:36.154Z,11.73
2018-06-04T21:28:04.457Z,11.20
2018-06-04T21:30:32.772Z,11.80
2018-06-04T21:33:01.016Z,11.97
2018-06-04T21:35:29.265Z,11.60
2018-06-04T21:37:57.519Z,11.40
2018-06-04T21:40:25.785Z,11.13
2018-06-04T21:42:54.033Z,11.73
2018-06-04T21:45:22.277Z,11.57
2018-06-04T21:47:50.523Z,10.77
2018-06-04T21:50:18.756Z,12.30
2018-06-04T21:52:47.334Z,12.70
2018-06-04T21:55:15.593Z,12.27
2018-06-04T21:57:43.920Z,13.07
2018-06-04T22:00:12.196Z,12.23
2018-06-04T22:02:40.443Z,11.43
2018-06-04T22:05:08.681Z,13.40
2018-06-04T22:07:36.909Z,12.80
2018-06-04T22:10:05.877Z,12.27
2018-06-04T22:12:34.117Z,12.50
2018-06-04T22:15:02.353Z,12.93
2018-06-04T22:17:30.593Z,14.07
2018-06-04T22:19:58.825Z,14.00
2018-06-04T22:22:27.082Z,12.70
2018-06-04T22:24:55.320Z,13.67
2018-06-04T22:27:23.596Z,11.33
2018-06-04T22:29:51.837Z,12.70
2018-06-04T22:32:20.082Z,14.00
2018-06-04T22:34:48.345Z,13.87
2018-06-04T22:37:16.576Z,13.53
2018-06-04T22:39:44.809Z,14.17
2018-06-04T22:42:13.037Z,12.70
2018-06-04T22:44:42.211Z,13.33
2018-06-04T22:47:10.817Z,13.20
2018-06-04T22:49:39.184Z,13.23
2018-06-04T22:52:07.425Z,13.70
2018-06-04T22:54:35.661Z,13.23
2018-06-04T22:57:03.909Z,13.13
2018-06-04T22:59:32.149Z,13.63
2018-06-04T23:02:00.381Z,13.57
2018-06-04T23:04:28.615Z,14.17
2018-06-04T23:06:56.865Z,14.63
2018-06-04T23:09:25.117Z,13.83
2018-06-04T23:11:53.385Z,14.37
2018-06-04T23:14:21.673Z,14.07
2018-06-04T23:16:49.932Z,14.07
2018-06-04T23:19:18.165Z,13.57
2018-06-04T23:21:46.420Z,13.67
2018-06-04T23:24:14.657Z,13.93
2018-06-04T23:26:42.893Z,13.73
2018-06-04T23:29:11.113Z,14.53
2018-06-04T23:31:39.332Z,15.07
2018-06-04T23:34:07.645Z,15.93
2018-06-04T23:36:36.053Z,14.67
2018-06-04T23:39:07.168Z,14.87
2018-06-04T23:41:35.391Z,14.20
2018-06-04T23:44:03.725Z,15.87
2018-06-04T23:46:31.949Z,14.87
2018-06-04T23:49:00.168Z,14.90
2018-06-04T23:51:28.385Z,15.03
2018-06-04T23:53:56.612Z,15.30
2018-06-04T23:56:24.845Z,14.90
2018-06-04T23:58:53.076Z,15.33
